Time;durP1;ratioP1;P1;durP2;ratioP2;P2;SDS_P1;SDS_P2;PMS_P1;PMS_P2;Temp;Humidity;BMP_temperature;BMP_pressure;BME280_temperature;BME280_humidity;BME280_pressure;Samples;Min_cycle;Max_cycle;Signal;HPM_P1;HPM_P2
2023/10/28 00:01:17;;;;;;;14.00;5.68;;;;;;;9.58;100.00;99436.03;6078395;19;20013;-70
2023/10/28 00:03:23;;;;;;;11.55;5.05;;;;;;;9.58;100.00;99433.41;6081159;19;20027;-70
2023/10/28 00:05:31;;;;;;;17.88;5.60;;;;;;;9.53;100.00;99424.94;6079655;19;20017;-70
2023/10/28 00:07:35;;;;;;;17.80;5.53;;;;;;;9.54;100.00;99427.50;6079567;19;20415;-69
2023/10/28 00:09:41;;;;;;;15.43;4.70;;;;;;;9.46;100.00;99427.09;6082144;19;20450;-69
2023/10/28 00:11:46;;;;;;;13.73;5.25;;;;;;;9.48;100.00;99427.00;6078326;19;20002;-69
2023/10/28 00:13:52;;;;;;;11.57;6.07;;;;;;;9.44;100.00;99435.06;6079015;19;19998;-69
2023/10/28 00:15:57;;;;;;;16.73;6.03;;;;;;;9.41;100.00;99429.16;6081049;19;20367;-69
2023/10/28 00:18:02;;;;;;;13.30;5.00;;;;;;;9.35;100.00;99437.38;6079356;19;20040;-70
2023/10/28 00:20:08;;;;;;;10.98;5.00;;;;;;;9.33;100.00;99434.84;6077295;19;20062;-70
2023/10/28 00:22:17;;;;;;;17.35;5.30;;;;;;;9.30;100.00;99444.66;6078391;19;19998;-69
2023/10/28 00:24:22;;;;;;;19.33;5.53;;;;;;;9.24;100.00;99443.22;6080085;19;20013;-69
2023/10/28 00:26:27;;;;;;;10.93;5.18;;;;;;;9.35;100.00;99448.72;6079061;19;20010;-69
2023/10/28 00:28:33;;;;;;;15.30;5.15;;;;;;;9.35;100.00;99442.63;6080273;19;20018;-69
2023/10/28 00:30:41;;;;;;;17.05;5.38;;;;;;;9.29;100.00;99443.81;6079224;19;20487;-69
2023/10/28 00:32:46;;;;;;;14.25;6.20;;;;;;;9.34;100.00;99444.38;6077539;19;20013;-70
2023/10/28 00:34:51;;;;;;;12.30;5.30;;;;;;;9.31;100.00;99447.19;6075523;19;20002;-69
2023/10/28 00:36:56;;;;;;;17.08;5.72;;;;;;;9.35;100.00;99446.09;6078831;19;20329;-68
2023/10/28 00:39:03;;;;;;;18.98;6.78;;;;;;;9.46;100.00;99448.09;6075306;19;20046;-70
2023/10/28 00:41:08;;;;;;;17.35;6.35;;;;;;;9.45;100.00;99441.13;6076252;19;20090;-69
2023/10/28 00:43:13;;;;;;;17.63;5.80;;;;;;;9.43;100.00;99443.03;6079846;19;20010;-69
2023/10/28 00:45:18;;;;;;;16.15;5.57;;;;;;;9.44;100.00;99445.53;6080029;19;20902;-69
2023/10/28 00:47:22;;;;;;;18.00;6.60;;;;;;;9.43;100.00;99445.66;6079903;19;20073;-69
2023/10/28 00:49:29;;;;;;;17.67;6.05;;;;;;;9.39;100.00;99447.59;6079460;19;20106;-69
2023/10/28 00:51:35;;;;;;;15.60;5.53;;;;;;;9.37;100.00;99452.09;6072123;19;20015;-69
2023/10/28 00:53:40;;;;;;;14.75;5.28;;;;;;;9.40;100.00;99448.41;6075238;19;20073;-69
2023/10/28 00:55:51;;;;;;;16.33;5.85;;;;;;;9.38;100.00;99447.69;6079809;19;20018;-70
2023/10/28 00:57:56;;;;;;;15.73;6.57;;;;;;;9.34;100.00;99447.00;6078272;19;20022;-69
2023/10/28 01:00:03;;;;;;;18.67;6.97;;;;;;;9.31;100.00;99438.47;6077382;19;20023;-69
2023/10/28 01:02:08;;;;;;;20.65;6.63;;;;;;;9.31;100.00;99439.31;6078705;19;20010;-70
2023/10/28 01:04:13;;;;;;;15.30;6.05;;;;;;;9.34;100.00;99431.28;6078137;19;20542;-69
2023/10/28 01:06:18;;;;;;;19.00;6.43;;;;;;;9.29;100.00;99435.09;6078815;19;20006;-70
2023/10/28 01:08:23;;;;;;;18.95;6.88;;;;;;;9.33;100.00;99432.22;6077006;19;20488;-69
2023/10/28 01:10:27;;;;;;;16.98;6.35;;;;;;;9.35;100.00;99435.59;6078136;19;20017;-70
2023/10/28 01:12:35;;;;;;;20.08;7.70;;;;;;;9.34;100.00;99441.75;6077589;19;20700;-69
2023/10/28 01:14:40;;;;;;;14.77;7.18;;;;;;;9.38;100.00;99440.66;6080326;19;20031;-70
2023/10/28 01:16:45;;;;;;;24.30;6.55;;;;;;;9.42;100.00;99439.53;6071216;19;20011;-69
2023/10/28 01:18:55;;;;;;;25.38;7.00;;;;;;;9.50;100.00;99436.47;6078040;19;20107;-69
2023/10/28 01:21:02;;;;;;;20.60;6.68;;;;;;;9.47;100.00;99438.44;6069412;19;22471;-69
2023/10/28 01:23:09;;;;;;;16.95;7.20;;;;;;;9.52;100.00;99431.16;6077378;19;20393;-70
2023/10/28 01:25:15;;;;;;;18.10;7.75;;;;;;;9.50;100.00;99430.38;6076188;19;20019;-70
2023/10/28 01:27:20;;;;;;;19.23;6.93;;;;;;;9.49;100.00;99431.34;6079793;19;20392;-70
2023/10/28 01:29:25;;;;;;;19.55;6.80;;;;;;;9.57;100.00;99431.72;6076698;19;20460;-70
2023/10/28 01:31:30;;;;;;;18.60;7.43;;;;;;;9.54;100.00;99427.50;6078215;19;20033;-69
2023/10/28 01:33:35;;;;;;;17.27;8.20;;;;;;;9.55;100.00;99430.97;6078414;19;20010;-70
2023/10/28 01:35:39;;;;;;;16.40;6.90;;;;;;;9.57;100.00;99435.19;6079037;19;20924;-70
2023/10/28 01:37:42;;;;;;;22.58;8.07;;;;;;;9.58;100.00;99441.25;6077566;19;20007;-70
2023/10/28 01:39:52;;;;;;;22.65;8.15;;;;;;;9.66;100.00;99442.53;6072396;19;20007;-71
2023/10/28 01:41:57;;;;;;;23.88;8.00;;;;;;;9.64;100.00;99439.13;6078257;19;21191;-69
2023/10/28 01:44:03;;;;;;;19.42;8.18;;;;;;;9.74;100.00;99425.47;6075622;19;20011;-69
2023/10/28 01:46:08;;;;;;;21.90;8.00;;;;;;;9.74;100.00;99426.34;6078453;19;20340;-69
2023/10/28 01:48:13;;;;;;;18.70;7.95;;;;;;;9.70;100.00;99426.59;6073930;19;20003;-69
2023/10/28 01:50:22;;;;;;;20.02;7.47;;;;;;;9.70;100.00;99424.81;6075779;19;20006;-69
2023/10/28 01:52:28;;;;;;;20.30;8.23;;;;;;;9.67;100.00;99425.00;6070222;19;20613;-69
2023/10/28 01:54:33;;;;;;;28.02;8.45;;;;;;;9.73;100.00;99423.78;6075970;19;20075;-69
2023/10/28 01:56:42;;;;;;;22.30;8.25;;;;;;;9.74;100.00;99423.72;6076049;19;20362;-69
2023/10/28 01:58:50;;;;;;;19.33;7.28;;;;;;;9.71;100.00;99431.72;6076108;19;20013;-69
2023/10/28 02:00:55;;;;;;;18.30;7.05;;;;;;;9.74;100.00;99426.34;6074001;19;20078;-69
2023/10/28 02:03:00;;;;;;;18.92;6.82;;;;;;;9.70;100.00;99423.97;6075321;19;20010;-70
2023/10/28 02:05:06;;;;;;;18.55;6.20;;;;;;;9.78;100.00;99426.97;6075576;19;20019;-69
2023/10/28 02:07:09;;;;;;;20.08;7.07;;;;;;;9.80;100.00;99425.13;6082793;19;20010;-68
2023/10/28 02:09:14;;;;;;;20.40;6.70;;;;;;;9.72;100.00;99417.69;6080664;19;20010;-68
2023/10/28 02:11:23;;;;;;;18.63;6.82;;;;;;;9.76;100.00;99420.97;6081589;19;20011;-69
2023/10/28 02:13:30;;;;;;;15.60;6.93;;;;;;;9.76;100.00;99410.47;6079576;19;20023;-69
2023/10/28 02:15:35;;;;;;;16.75;6.93;;;;;;;9.76;100.00;99419.19;6081733;19;20440;-69
2023/10/28 02:17:40;;;;;;;14.73;6.82;;;;;;;9.78;100.00;99416.50;6083040;19;20010;-69
2023/10/28 02:19:46;;;;;;;13.23;7.40;;;;;;;9.82;100.00;99412.72;6079594;19;20006;-69
2023/10/28 02:21:54;;;;;;;13.77;7.25;;;;;;;9.79;100.00;99405.88;6077509;19;20021;-69
2023/10/28 02:24:16;;;;;;;17.88;6.63;;;;;;;9.82;100.00;99407.47;6080140;19;19999;-69
2023/10/28 02:26:21;;;;;;;17.45;6.38;;;;;;;9.78;100.00;99408.63;6081221;19;20037;-69
2023/10/28 02:28:27;;;;;;;19.08;7.45;;;;;;;9.77;100.00;99409.53;6081170;19;20020;-69
2023/10/28 02:30:35;;;;;;;17.88;7.18;;;;;;;9.81;100.00;99411.88;6079075;19;20006;-69
2023/10/28 02:32:40;;;;;;;16.95;6.68;;;;;;;9.73;100.00;99413.28;6079125;19;19998;-69
2023/10/28 02:34:45;;;;;;;15.10;7.03;;;;;;;9.74;100.00;99407.09;6081063;19;20033;-69
2023/10/28 02:36:49;;;;;;;17.27;6.30;;;;;;;9.73;100.00;99406.25;6082090;19;20070;-69
2023/10/28 02:38:54;;;;;;;23.05;7.15;;;;;;;9.78;100.00;99409.47;6080227;19;20017;-69
2023/10/28 02:40:59;;;;;;;20.50;7.80;;;;;;;9.72;100.00;99399.34;6077604;19;20011;-69
2023/10/28 02:43:04;;;;;;;14.82;5.50;;;;;;;9.77;100.00;99393.78;6080997;19;20029;-71
2023/10/28 02:45:10;;;;;;;15.80;5.30;;;;;;;9.81;100.00;99400.56;6081256;19;20352;-69
2023/10/28 02:47:18;;;;;;;20.02;6.35;;;;;;;9.80;100.00;99398.88;6073671;19;20009;-69
2023/10/28 02:49:23;;;;;;;19.33;6.15;;;;;;;9.80;100.00;99402.34;6081028;19;20330;-69
2023/10/28 02:51:28;;;;;;;13.57;6.18;;;;;;;9.81;100.00;99406.63;6074588;19;20996;-69
2023/10/28 02:53:33;;;;;;;19.90;7.07;;;;;;;9.83;100.00;99401.31;6076503;19;20010;-69
2023/10/28 02:55:38;;;;;;;18.77;6.72;;;;;;;9.81;100.00;99413.69;6075809;19;20015;-69
2023/10/28 02:57:43;;;;;;;19.08;7.45;;;;;;;9.87;100.00;99408.06;6078621;19;20487;-71
2023/10/28 02:59:48;;;;;;;16.75;6.18;;;;;;;9.84;100.00;99421.34;6077344;19;20006;-70
2023/10/28 03:01:53;;;;;;;15.48;6.88;;;;;;;9.88;100.00;99421.09;6080886;19;20033;-69
2023/10/28 03:04:01;;;;;;;17.77;6.35;;;;;;;9.92;100.00;99413.03;6082261;19;20530;-69
2023/10/28 03:06:04;;;;;;;17.98;5.97;;;;;;;9.92;100.00;99416.50;6079581;19;20034;-69
2023/10/28 03:08:09;;;;;;;;;;;;;;;9.86;100.00;99420.31;6080876;19;20014;-69
2023/10/28 03:10:14;;;;;;;15.23;6.38;;;;;;;9.89;100.00;99424.56;6077475;19;20025;-69
2023/10/28 03:12:19;;;;;;;15.20;5.75;;;;;;;9.92;100.00;99411.25;6078355;19;20024;-69
2023/10/28 03:14:22;;;;;;;19.40;5.90;;;;;;;9.90;100.00;99418.38;6081987;19;20019;-69
2023/10/28 03:16:27;;;;;;;20.17;6.43;;;;;;;9.87;100.00;99415.91;6079534;19;20007;-69
2023/10/28 03:18:34;;;;;;;15.38;5.63;;;;;;;9.87;100.00;99416.78;6080717;19;20021;-69
2023/10/28 03:20:40;;;;;;;16.90;5.72;;;;;;;9.86;100.00;99415.09;6081448;19;20083;-69
2023/10/28 03:22:45;;;;;;;16.27;6.53;;;;;;;9.87;100.00;99422.03;6078810;19;20482;-69
2023/10/28 03:24:50;;;;;;;13.25;4.65;;;;;;;9.89;100.00;99417.50;6078716;19;20035;-69
2023/10/28 03:26:55;;;;;;;15.73;5.07;;;;;;;9.87;100.00;99411.53;6080577;19;20037;-69
2023/10/28 03:29:00;;;;;;;15.27;5.60;;;;;;;9.83;100.00;99411.81;6080917;19;20015;-69
2023/10/28 03:31:09;;;;;;;12.73;5.30;;;;;;;9.83;100.00;99412.66;6079095;19;20606;-69
2023/10/28 03:33:15;;;;;;;12.57;5.03;;;;;;;9.80;100.00;99409.38;6079070;19;20003;-69
2023/10/28 03:35:20;;;;;;;8.70;4.43;;;;;;;9.79;100.00;99413.75;6079019;19;20013;-69
2023/10/28 03:37:27;;;;;;;12.63;4.53;;;;;;;9.79;100.00;99413.75;6078186;19;20007;-69
2023/10/28 03:39:32;;;;;;;11.00;4.40;;;;;;;9.79;100.00;99413.75;6079650;19;20007;-68
2023/10/28 03:41:37;;;;;;;12.85;4.57;;;;;;;9.82;100.00;99410.09;6079558;19;20035;-69
2023/10/28 03:43:42;;;;;;;9.40;3.83;;;;;;;9.79;100.00;99407.66;6078172;19;20527;-69
2023/10/28 03:45:49;;;;;;;11.07;4.55;;;;;;;9.77;100.00;99404.28;6078239;19;20578;-69
2023/10/28 03:47:56;;;;;;;12.18;5.03;;;;;;;9.78;100.00;99409.47;6077264;19;20059;-69
2023/10/28 03:50:02;;;;;;;15.20;4.95;;;;;;;9.80;100.00;99412.84;6078535;19;20070;-69
2023/10/28 03:52:08;;;;;;;10.35;4.75;;;;;;;9.85;100.00;99404.69;6076593;19;20002;-69
2023/10/28 03:54:15;;;;;;;8.32;4.30;;;;;;;9.83;100.00;99403.94;6072099;19;20074;-69
2023/10/28 03:56:20;;;;;;;12.32;4.72;;;;;;;9.81;100.00;99397.94;6077328;19;20007;-69
2023/10/28 03:58:25;;;;;;;13.40;4.85;;;;;;;9.83;100.00;99393.44;6079039;19;20013;-69
2023/10/28 04:00:30;;;;;;;11.32;4.55;;;;;;;9.86;100.00;99391.47;6077791;19;20380;-69
2023/10/28 04:02:32;;;;;;;10.25;4.70;;;;;;;9.79;100.00;99387.53;6077302;19;20037;-69
2023/10/28 04:04:38;;;;;;;8.07;4.47;;;;;;;9.76;100.00;99398.19;6076626;19;20002;-69
2023/10/28 04:06:43;;;;;;;18.00;5.72;;;;;;;9.77;100.00;99397.28;6078448;19;20491;-69
2023/10/28 04:08:48;;;;;;;12.18;5.68;;;;;;;9.80;100.00;99388.38;6078821;19;20333;-69
2023/10/28 04:10:56;;;;;;;16.73;6.30;;;;;;;9.79;100.00;99394.56;6076583;19;20482;-69
2023/10/28 04:13:07;;;;;;;14.60;6.53;;;;;;;9.79;100.00;99386.69;6076169;19;20009;-68
2023/10/28 04:15:13;;;;;;;19.23;6.93;;;;;;;9.80;100.00;99386.59;6078267;19;20011;-69
2023/10/28 04:17:18;;;;;;;16.38;6.53;;;;;;;9.79;100.00;99384.91;6075743;19;19999;-71
2023/10/28 04:19:23;;;;;;;16.35;5.30;;;;;;;9.81;100.00;99388.28;6075816;19;20010;-69
2023/10/28 04:21:26;;;;;;;22.85;6.97;;;;;;;9.83;100.00;99385.56;6075475;19;20020;-69
2023/10/28 04:23:31;;;;;;;11.05;5.90;;;;;;;9.82;100.00;99389.13;6075055;19;20118;-69
2023/10/28 04:25:37;;;;;;;15.23;5.70;;;;;;;9.82;100.00;99392.59;6074312;19;20006;-69
2023/10/28 04:28:03;;;;;;;15.30;6.57;;;;;;;9.83;100.00;99390.81;6079283;19;20046;-69
2023/10/28 04:30:11;;;;;;;17.02;7.00;;;;;;;9.87;100.00;99394.94;6075424;19;20049;-69
2023/10/28 04:32:17;;;;;;;17.55;5.85;;;;;;;9.86;100.00;99393.25;6075472;19;20006;-69
2023/10/28 04:34:23;;;;;;;14.02;6.45;;;;;;;9.79;100.00;99394.56;6079945;19;20066;-69
2023/10/28 04:36:27;;;;;;;16.38;6.53;;;;;;;9.87;100.00;99381.81;6081346;19;20299;-69
2023/10/28 04:38:34;;;;;;;13.40;5.80;;;;;;;9.85;100.00;99386.34;6076960;19;20040;-69
2023/10/28 04:40:40;;;;;;;14.63;5.90;;;;;;;9.82;100.00;99381.25;6075604;19;20002;-69
2023/10/28 04:42:47;;;;;;;11.18;5.43;;;;;;;9.81;100.00;99376.94;6076658;19;20011;-69
2023/10/28 04:44:54;;;;;;;15.15;5.93;;;;;;;9.83;100.00;99375.06;6077329;19;20506;-69
2023/10/28 04:47:01;;;;;;;16.40;6.15;;;;;;;9.78;100.00;99377.13;6074843;19;20038;-69
2023/10/28 04:49:06;;;;;;;15.98;6.40;;;;;;;9.81;100.00;99375.16;6078116;19;20281;-69
2023/10/28 04:51:12;;;;;;;12.10;5.55;;;;;;;9.79;100.00;99377.03;6077834;19;20006;-69
2023/10/28 04:53:20;;;;;;;12.90;5.38;;;;;;;9.81;100.00;99380.41;6073935;19;20010;-69
2023/10/28 04:55:25;;;;;;;13.80;5.90;;;;;;;9.80;100.00;99373.50;6072634;19;20018;-68
2023/10/28 04:57:31;;;;;;;16.02;6.43;;;;;;;9.85;100.00;99371.44;6076099;19;20010;-69
2023/10/28 04:59:36;;;;;;;15.63;7.15;;;;;;;9.82;100.00;99376.00;6078523;19;20007;-69
2023/10/28 05:01:44;;;;;;;12.57;6.20;;;;;;;9.79;100.00;99377.03;6076815;19;20026;-69
2023/10/28 05:03:49;;;;;;;15.82;6.13;;;;;;;9.78;100.00;99369.28;6076462;19;20007;-69
2023/10/28 05:05:54;;;;;;;14.18;6.65;;;;;;;9.82;100.00;99370.75;6078730;19;20048;-69
2023/10/28 05:08:00;;;;;;;12.82;5.68;;;;;;;9.81;100.00;99369.06;6074298;19;20070;-70
2023/10/28 05:10:05;;;;;;;16.17;6.55;;;;;;;9.82;100.00;99373.38;6077892;19;20034;-69
2023/10/28 05:12:10;;;;;;;16.65;6.85;;;;;;;9.82;100.00;99370.75;6076128;19;20256;-69
2023/10/28 05:14:15;;;;;;;17.85;7.47;;;;;;;9.78;100.00;99364.03;6077039;19;20010;-69
2023/10/28 05:16:23;;;;;;;19.17;8.40;;;;;;;9.79;100.00;99365.69;6078397;19;20114;-69
2023/10/28 05:18:31;;;;;;;15.43;8.60;;;;;;;9.84;100.00;99363.63;6077026;19;20006;-69
2023/10/28 05:20:36;;;;;;;23.83;9.43;;;;;;;9.84;100.00;99369.72;6076414;19;20010;-69
2023/10/28 05:22:42;;;;;;;24.38;10.02;;;;;;;9.83;100.00;99368.03;6075476;19;20007;-69
2023/10/28 05:24:47;;;;;;;20.50;8.68;;;;;;;9.82;100.00;99371.63;6075712;19;20518;-69
2023/10/28 05:26:52;;;;;;;21.85;8.63;;;;;;;9.80;100.00;99362.16;6070954;19;20003;-69
2023/10/28 05:28:59;;;;;;;17.13;7.20;;;;;;;9.84;100.00;99364.47;6075472;19;20356;-69
2023/10/28 05:31:06;;;;;;;19.20;7.32;;;;;;;9.85;100.00;99365.34;6075867;19;20020;-70
2023/10/28 05:33:13;;;;;;;15.52;7.55;;;;;;;9.91;100.00;99367.59;6075346;19;20562;-69
2023/10/28 05:35:21;;;;;;;13.30;6.18;;;;;;;9.88;100.00;99368.63;6076938;19;20010;-71
2023/10/28 05:37:29;;;;;;;19.67;7.40;;;;;;;9.85;100.00;99367.97;6070833;19;20017;-70
2023/10/28 05:39:34;;;;;;;12.55;5.72;;;;;;;9.88;100.00;99373.03;6073189;19;20010;-69
2023/10/28 05:41:39;;;;;;;13.02;6.25;;;;;;;9.86;100.00;99369.63;6083707;19;20446;-69
2023/10/28 05:43:48;;;;;;;13.07;7.05;;;;;;;9.88;100.00;99370.41;6079551;19;20074;-69
2023/10/28 05:45:56;;;;;;;13.63;6.18;;;;;;;9.86;100.00;99369.63;6079921;19;20692;-69
2023/10/28 05:48:01;;;;;;;18.40;5.57;;;;;;;9.89;100.00;99372.06;6081156;19;20506;-69
2023/10/28 05:50:10;;;;;;;17.23;5.97;;;;;;;9.89;100.00;99374.69;6079856;19;20018;-70
2023/10/28 05:52:20;;;;;;;15.38;6.57;;;;;;;9.87;100.00;99373.94;6080066;19;20010;-70
2023/10/28 05:54:26;;;;;;;14.38;6.38;;;;;;;9.87;100.00;99368.69;6081238;19;20011;-70
2023/10/28 05:56:31;;;;;;;15.07;6.47;;;;;;;9.85;100.00;99360.09;6078705;19;20524;-70
2023/10/28 05:58:36;;;;;;;20.70;7.38;;;;;;;9.87;100.00;99372.19;6079257;19;20281;-71
2023/10/28 06:00:45;;;;;;;19.10;6.90;;;;;;;9.84;100.00;99364.47;6081125;19;20013;-70
2023/10/28 06:02:57;;;;;;;16.55;6.72;;;;;;;9.86;100.00;99367.00;6079781;19;20382;-70
2023/10/28 06:05:00;;;;;;;17.25;7.25;;;;;;;9.93;100.00;99368.34;6080877;19;20351;-69
2023/10/28 06:07:07;;;;;;;17.38;6.60;;;;;;;9.92;100.00;99366.63;6080678;19;20531;-69
2023/10/28 06:09:17;;;;;;;19.17;6.78;;;;;;;9.90;100.00;99365.91;6080456;19;20013;-69
2023/10/28 06:11:22;;;;;;;14.48;6.05;;;;;;;9.91;100.00;99369.38;6081334;19;20341;-69
2023/10/28 06:13:28;;;;;;;12.68;6.25;;;;;;;9.91;100.00;99359.72;6075352;19;19999;-70
2023/10/28 06:15:30;;;;;;;16.05;6.78;;;;;;;9.93;100.00;99367.50;6080074;19;20038;-69
2023/10/28 06:17:36;;;;;;;17.98;7.47;;;;;;;9.94;100.00;99362.13;6082570;19;20002;-70
2023/10/28 06:19:50;;;;;;;15.38;6.93;;;;;;;9.91;100.00;99354.47;6080107;19;20705;-70
2023/10/28 06:22:05;;;;;;;15.00;6.10;;;;;;;9.99;100.00;99369.75;6082670;19;20034;-71
2023/10/28 06:24:14;;;;;;;15.10;6.63;;;;;;;9.94;100.00;99363.94;6081326;19;20609;-69
2023/10/28 06:26:31;;;;;;;17.02;7.13;;;;;;;9.98;100.00;99361.03;6081256;19;20007;-69
2023/10/28 06:28:47;;;;;;;19.33;6.67;;;;;;;10.03;100.00;99366.84;6072995;19;20018;-69
2023/10/28 06:30:54;;;;;;;13.85;6.68;;;;;;;10.03;100.00;99364.22;6079771;19;20017;-69
2023/10/28 06:33:05;;;;;;;18.50;6.82;;;;;;;10.04;100.00;99368.50;6080860;19;20030;-72
2023/10/28 06:35:23;;;;;;;12.57;6.03;;;;;;;10.09;100.00;99370.84;6078751;19;20354;-71
2023/10/28 06:37:28;;;;;;;16.05;6.72;;;;;;;10.08;100.00;99367.41;6080340;19;20383;-69
2023/10/28 06:39:41;;;;;;;13.23;6.47;;;;;;;10.10;100.00;99364.66;6074067;19;20089;-71
2023/10/28 06:42:05;;;;;;;15.07;6.53;;;;;;;10.16;100.00;99364.25;6078497;19;20637;-71
2023/10/28 06:44:10;;;;;;;19.60;6.78;;;;;;;10.10;100.00;99360.25;6078775;19;20006;-70
2023/10/28 06:46:25;;;;;;;23.42;6.68;;;;;;;10.06;100.00;99371.06;6078412;19;20042;-69
2023/10/28 06:48:30;;;;;;;17.73;7.72;;;;;;;10.06;100.00;99365.81;6076718;19;20006;-70
2023/10/28 06:50:50;;;;;;;15.02;6.75;;;;;;;10.14;100.00;99370.53;6078698;19;20019;-69
2023/10/28 06:52:55;;;;;;;22.35;6.53;;;;;;;10.15;100.00;99367.00;6077559;19;20010;-72
2023/10/28 06:55:05;;;;;;;17.85;6.00;;;;;;;10.17;100.00;99379.09;6080154;19;20448;-70
2023/10/28 06:57:16;;;;;;;14.18;5.63;;;;;;;10.18;100.00;99370.28;6078624;19;20002;-71
2023/10/28 06:59:23;;;;;;;17.52;6.05;;;;;;;10.20;100.00;99381.53;6081830;19;19999;-70
2023/10/28 07:01:28;;;;;;;16.45;5.97;;;;;;;10.24;100.00;99376.91;6080862;19;21771;-72
2023/10/28 07:03:37;;;;;;;13.27;5.63;;;;;;;10.21;100.00;99369.25;6075269;19;20007;-69
2023/10/28 07:05:48;;;;;;;11.70;6.20;;;;;;;10.21;100.00;99372.69;6075645;19;19998;-69
2023/10/28 07:07:51;;;;;;;12.23;5.38;;;;;;;10.26;100.00;99372.41;6080460;19;20006;-71
2023/10/28 07:10:09;;;;;;;14.32;4.90;;;;;;;10.26;100.00;99369.78;6077528;19;20022;-70
2023/10/28 07:12:29;;;;;;;12.48;5.05;;;;;;;10.23;100.00;99381.31;6079215;19;20007;-70
2023/10/28 07:14:35;;;;;;;14.10;5.45;;;;;;;10.24;100.00;99376.91;6075821;19;20374;-70
2023/10/28 07:16:44;;;;;;;19.65;6.38;;;;;;;10.30;100.00;99376.59;6079627;19;20006;-71
2023/10/28 07:18:53;;;;;;;11.55;5.70;;;;;;;10.29;100.00;99386.25;6076725;19;20007;-70
2023/10/28 07:21:02;;;;;;;14.75;5.07;;;;;;;10.29;100.00;99382.75;6080971;19;19999;-71
2023/10/28 07:23:08;;;;;;;10.95;5.00;;;;;;;10.35;100.00;99385.00;6082474;19;20100;-69
2023/10/28 07:25:16;;;;;;;17.73;5.82;;;;;;;10.35;100.00;99379.78;6083028;19;20013;-70
2023/10/28 07:27:21;;;;;;;14.23;5.15;;;;;;;10.36;100.00;99386.69;6081976;19;20010;-69
2023/10/28 07:29:30;;;;;;;13.73;5.32;;;;;;;10.38;100.00;99386.59;6079293;19;20011;-70
2023/10/28 07:31:39;;;;;;;14.15;5.07;;;;;;;10.45;100.00;99387.88;6080635;19;20038;-69
2023/10/28 07:33:44;;;;;;;13.90;5.93;;;;;;;10.44;100.00;99389.66;6072233;19;20002;-69
2023/10/28 07:35:52;;;;;;;14.65;4.65;;;;;;;10.48;100.00;99395.59;6083149;19;20023;-70
2023/10/28 07:37:57;;;;;;;15.13;6.10;;;;;;;10.47;100.00;99388.63;6082792;19;20014;-70
2023/10/28 07:40:03;;;;;;;16.50;5.10;;;;;;;10.45;100.00;99396.63;6081807;19;20014;-69
2023/10/28 07:42:08;;;;;;;13.63;4.80;;;;;;;10.48;100.00;99387.72;6083405;19;20045;-69
2023/10/28 07:44:13;;;;;;;10.45;4.20;;;;;;;10.49;100.00;99397.28;6082910;19;20127;-71
2023/10/28 07:46:21;;;;;;;18.52;5.05;;;;;;;10.52;100.00;99397.06;6081197;19;20896;-70
2023/10/28 07:48:28;;;;;;;14.15;5.43;;;;;;;10.52;100.00;99402.31;6082806;19;20042;-70
2023/10/28 07:50:36;;;;;;;12.75;4.28;;;;;;;10.55;100.00;99408.22;6081045;19;20010;-69
2023/10/28 07:52:41;;;;;;;13.18;4.47;;;;;;;10.63;100.00;99399.00;6078683;19;20006;-69
2023/10/28 07:54:46;;;;;;;11.82;4.72;;;;;;;10.59;100.00;99398.38;6080501;19;20082;-69
2023/10/28 07:56:51;;;;;;;13.25;4.97;;;;;;;10.62;100.00;99398.19;6080096;19;20033;-69
2023/10/28 07:58:59;;;;;;;7.75;4.03;;;;;;;10.63;100.00;99397.22;6079818;19;20010;-69
2023/10/28 08:01:03;;;;;;;15.02;5.28;;;;;;;10.63;100.00;99399.84;6082049;19;20010;-69
2023/10/28 08:03:10;;;;;;;15.40;4.65;;;;;;;10.67;100.00;99405.78;6079701;19;20010;-70
2023/10/28 08:05:13;;;;;;;17.77;5.18;;;;;;;10.66;100.00;99404.91;6080791;19;20015;-70
2023/10/28 08:07:18;;;;;;;9.80;4.10;;;;;;;10.71;100.00;99415.97;6079715;19;20013;-69
2023/10/28 08:09:25;;;;;;;15.73;5.03;;;;;;;10.66;100.00;99406.69;6080782;19;20066;-69
2023/10/28 08:11:30;;;;;;;15.18;4.70;;;;;;;10.73;100.00;99414.09;6080671;19;19999;-69
2023/10/28 08:13:35;;;;;;;10.80;4.13;;;;;;;10.75;100.00;99412.22;6081246;19;20007;-69
2023/10/28 08:15:40;;;;;;;12.95;4.22;;;;;;;10.77;100.00;99410.34;6080929;19;20023;-69
2023/10/28 08:17:43;;;;;;;9.93;4.95;;;;;;;10.78;100.00;99403.28;6082155;19;21328;-69
2023/10/28 08:19:51;;;;;;;11.57;4.60;;;;;;;10.78;100.00;99403.28;6082414;19;20015;-69
2023/10/28 08:21:55;;;;;;;22.77;5.60;;;;;;;10.80;100.00;99409.31;6080999;19;20308;-69
2023/10/28 08:23:58;;;;;;;12.52;4.55;;;;;;;10.84;100.00;99397.63;6081624;19;20821;-72
2023/10/28 08:26:05;;;;;;;11.88;4.60;;;;;;;10.86;100.00;99408.06;6077393;19;20007;-69
2023/10/28 08:28:11;;;;;;;16.75;5.55;;;;;;;10.87;100.00;99404.47;6079059;19;20006;-69
2023/10/28 08:30:19;;;;;;;15.65;3.88;;;;;;;10.94;100.00;99393.47;6076934;19;20011;-69
2023/10/28 08:32:24;;;;;;;11.95;4.55;;;;;;;10.96;100.00;99406.53;6080860;19;20049;-69
2023/10/28 08:34:29;;;;;;;13.63;4.32;;;;;;;10.98;100.00;99410.75;6081220;19;20013;-70
2023/10/28 08:36:39;;;;;;;19.90;4.18;;;;;;;11.05;100.00;99410.31;6082174;19;20011;-69
2023/10/28 08:38:44;;;;;;;13.55;4.32;;;;;;;11.12;100.00;99411.63;6082033;19;20009;-69
2023/10/28 08:40:50;;;;;;;15.48;4.07;;;;;;;11.14;100.00;99415.00;6080893;19;20007;-69
2023/10/28 08:42:55;;;;;;;12.50;4.70;;;;;;;11.23;100.00;99418.81;6081569;19;20034;-68
2023/10/28 08:45:01;;;;;;;15.07;4.00;;;;;;;11.29;100.00;99423.66;6081166;19;20098;-69
2023/10/28 08:47:09;;;;;;;8.15;3.70;;;;;;;11.34;100.00;99422.38;6077440;19;20020;-69
2023/10/28 08:49:17;;;;;;;12.73;4.47;;;;;;;11.38;100.00;99423.06;6082262;19;20371;-69
2023/10/28 08:51:21;;;;;;;15.20;3.72;;;;;;;11.45;100.00;99434.81;6081127;19;20066;-69
2023/10/28 08:53:30;;;;;;;12.95;3.78;;;;;;;11.51;100.00;99436.22;6079411;19;20091;-70
2023/10/28 08:55:38;;;;;;;15.38;4.32;;;;;;;11.53;100.00;99431.69;6081032;19;20460;-69
2023/10/28 08:57:46;;;;;;;9.27;3.55;;;;;;;11.55;100.00;99445.59;6080435;19;21235;-69
2023/10/28 08:59:52;;;;;;;11.00;3.60;;;;;;;11.57;100.00;99446.34;6079170;19;20369;-70
2023/10/28 09:01:57;;;;;;;11.10;4.00;;;;;;;11.57;100.00;99441.91;6079577;19;20329;-69
2023/10/28 09:04:04;;;;;;;8.40;3.00;;;;;;;11.62;100.00;99441.59;6079388;19;20014;-69
2023/10/28 09:06:09;;;;;;;14.45;3.63;;;;;;;11.60;100.00;99452.22;6081535;19;20010;-70
2023/10/28 09:08:14;;;;;;;19.33;4.05;;;;;;;11.66;100.00;99448.34;6081680;19;20030;-69
2023/10/28 09:10:22;;;;;;;16.92;4.18;;;;;;;11.65;100.00;99444.03;6080830;19;20050;-70
2023/10/28 09:12:27;;;;;;;10.55;3.70;;;;;;;11.71;100.00;99445.41;6080980;19;20101;-70
2023/10/28 09:14:33;;;;;;;11.60;3.80;;;;;;;11.75;100.00;99452.16;6081842;19;20116;-69
2023/10/28 09:16:38;;;;;;;10.65;3.97;;;;;;;11.78;100.00;99452.78;6080921;19;20011;-70
2023/10/28 09:18:44;;;;;;;11.30;4.28;;;;;;;11.75;100.00;99442.47;6079649;19;20006;-70
2023/10/28 09:20:47;;;;;;;13.77;3.92;;;;;;;11.79;100.00;99450.97;6081699;19;20015;-69
2023/10/28 09:22:52;;;;;;;6.97;3.50;;;;;;;11.84;100.00;99452.34;6080477;19;20014;-69
2023/10/28 09:24:57;;;;;;;9.32;3.40;;;;;;;11.82;100.00;99459.53;6080978;19;20011;-71
2023/10/28 09:27:05;;;;;;;7.53;3.90;;;;;;;11.82;100.00;99456.91;6080201;19;20046;-70
2023/10/28 09:29:10;;;;;;;11.13;4.07;;;;;;;11.85;100.00;99448.78;6078849;19;20030;-71
2023/10/28 09:31:25;;;;;;;11.95;4.03;;;;;;;11.91;100.00;99454.63;6078735;19;20754;-69
2023/10/28 09:33:30;;;;;;;9.35;3.50;;;;;;;11.91;100.00;99447.56;6078382;19;20026;-69
2023/10/28 09:35:36;;;;;;;16.40;4.18;;;;;;;11.91;100.00;99468.63;6079167;19;20006;-69
2023/10/28 09:37:42;;;;;;;8.32;3.75;;;;;;;11.99;100.00;99466.31;6078362;19;20010;-69
2023/10/28 09:39:49;;;;;;;8.82;3.75;;;;;;;12.01;100.00;99460.94;6078911;19;20006;-69
2023/10/28 09:41:55;;;;;;;13.48;3.83;;;;;;;11.99;100.00;99466.31;6078703;19;20014;-69
2023/10/28 09:44:04;;;;;;;10.63;4.20;;;;;;;11.97;100.00;99462.94;6076247;19;20010;-67
2023/10/28 09:46:10;;;;;;;12.80;3.88;;;;;;;11.96;100.00;99465.69;6079107;19;20459;-69
2023/10/28 09:48:18;;;;;;;15.70;5.05;;;;;;;11.98;100.00;99458.50;6077305;19;20474;-69